sensor_id;sensor_type;location;lat;lon;timestamp;P1;durP1;ratioP1;P2;durP2;ratioP2
3349;SDS011;1688;51.000;13.684;2024-03-02T00:00:57;23.20;;;13.97;;
3349;SDS011;1688;51.000;13.684;2024-03-02T00:03:30;32.47;;;16.07;;
3349;SDS011;1688;51.000;13.684;2024-03-02T00:06:04;54.20;;;18.20;;
3349;SDS011;1688;51.000;13.684;2024-03-02T00:08:37;36.90;;;15.03;;
3349;SDS011;1688;51.000;13.684;2024-03-02T00:11:10;26.97;;;16.13;;
3349;SDS011;1688;51.000;13.684;2024-03-02T00:13:46;28.93;;;14.57;;
3349;SDS011;1688;51.000;13.684;2024-03-02T00:16:19;33.43;;;16.80;;
3349;SDS011;1688;51.000;13.684;2024-03-02T00:18:52;30.97;;;16.83;;
3349;SDS011;1688;51.000;13.684;2024-03-02T00:21:25;28.43;;;15.87;;
3349;SDS011;1688;51.000;13.684;2024-03-02T00:24:01;56.00;;;16.27;;
3349;SDS011;1688;51.000;13.684;2024-03-02T00:26:56;28.77;;;14.27;;
3349;SDS011;1688;51.000;13.684;2024-03-02T00:29:29;43.57;;;16.60;;
3349;SDS011;1688;51.000;13.684;2024-03-02T00:32:01;26.90;;;14.90;;
3349;SDS011;1688;51.000;13.684;2024-03-02T00:34:34;37.73;;;15.80;;
3349;SDS011;1688;51.000;13.684;2024-03-02T00:37:08;36.20;;;15.97;;
3349;SDS011;1688;51.000;13.684;2024-03-02T00:39:41;29.97;;;17.67;;
3349;SDS011;1688;51.000;13.684;2024-03-02T00:42:14;28.33;;;15.33;;
3349;SDS011;1688;51.000;13.684;2024-03-02T00:44:47;39.67;;;18.47;;
3349;SDS011;1688;51.000;13.684;2024-03-02T00:47:20;30.63;;;16.17;;
3349;SDS011;1688;51.000;13.684;2024-03-02T00:49:53;21.43;;;14.10;;
3349;SDS011;1688;51.000;13.684;2024-03-02T00:52:26;30.73;;;15.27;;
3349;SDS011;1688;51.000;13.684;2024-03-02T00:54:59;30.70;;;16.80;;
3349;SDS011;1688;51.000;13.684;2024-03-02T00:57:32;25.37;;;13.27;;
3349;SDS011;1688;51.000;13.684;2024-03-02T01:00:07;34.97;;;16.30;;
3349;SDS011;1688;51.000;13.684;2024-03-02T01:02:42;34.97;;;14.20;;
3349;SDS011;1688;51.000;13.684;2024-03-02T01:05:17;22.17;;;13.27;;
3349;SDS011;1688;51.000;13.684;2024-03-02T01:07:50;24.70;;;14.77;;
3349;SDS011;1688;51.000;13.684;2024-03-02T01:10:23;36.00;;;17.20;;
3349;SDS011;1688;51.000;13.684;2024-03-02T01:12:56;31.33;;;17.63;;
3349;SDS011;1688;51.000;13.684;2024-03-02T01:15:29;33.33;;;18.37;;
3349;SDS011;1688;51.000;13.684;2024-03-02T01:18:02;32.93;;;17.50;;
3349;SDS011;1688;51.000;13.684;2024-03-02T01:20:35;25.60;;;14.60;;
3349;SDS011;1688;51.000;13.684;2024-03-02T01:23:08;30.60;;;13.73;;
3349;SDS011;1688;51.000;13.684;2024-03-02T01:25:41;40.20;;;15.07;;
3349;SDS011;1688;51.000;13.684;2024-03-02T01:28:14;34.07;;;17.40;;
3349;SDS011;1688;51.000;13.684;2024-03-02T01:30:47;31.27;;;14.50;;
3349;SDS011;1688;51.000;13.684;2024-03-02T01:33:20;38.60;;;14.70;;
3349;SDS011;1688;51.000;13.684;2024-03-02T01:35:53;34.27;;;16.10;;
3349;SDS011;1688;51.000;13.684;2024-03-02T01:38:26;35.83;;;15.63;;
3349;SDS011;1688;51.000;13.684;2024-03-02T01:41:00;26.20;;;12.70;;
3349;SDS011;1688;51.000;13.684;2024-03-02T01:43:34;25.63;;;16.03;;
3349;SDS011;1688;51.000;13.684;2024-03-02T01:46:12;26.83;;;15.00;;
3349;SDS011;1688;51.000;13.684;2024-03-02T01:48:45;27.10;;;17.27;;
3349;SDS011;1688;51.000;13.684;2024-03-02T01:51:17;24.90;;;13.67;;
3349;SDS011;1688;51.000;13.684;2024-03-02T01:53:50;24.57;;;14.00;;
3349;SDS011;1688;51.000;13.684;2024-03-02T01:56:23;25.00;;;12.93;;
3349;SDS011;1688;51.000;13.684;2024-03-02T01:58:56;20.77;;;12.40;;
3349;SDS011;1688;51.000;13.684;2024-03-02T02:01:29;27.47;;;14.23;;
3349;SDS011;1688;51.000;13.684;2024-03-02T02:04:03;38.77;;;13.57;;
3349;SDS011;1688;51.000;13.684;2024-03-02T02:06:36;32.03;;;16.53;;
3349;SDS011;1688;51.000;13.684;2024-03-02T02:09:09;27.30;;;13.70;;
3349;SDS011;1688;51.000;13.684;2024-03-02T02:11:42;45.57;;;14.20;;
3349;SDS011;1688;51.000;13.684;2024-03-02T02:14:15;22.77;;;13.70;;
3349;SDS011;1688;51.000;13.684;2024-03-02T02:16:48;26.33;;;14.87;;
3349;SDS011;1688;51.000;13.684;2024-03-02T02:19:20;36.07;;;15.87;;
3349;SDS011;1688;51.000;13.684;2024-03-02T02:21:53;36.63;;;12.70;;
3349;SDS011;1688;51.000;13.684;2024-03-02T02:24:27;26.33;;;15.73;;
3349;SDS011;1688;51.000;13.684;2024-03-02T02:27:00;30.33;;;15.70;;
3349;SDS011;1688;51.000;13.684;2024-03-02T02:29:32;33.93;;;17.13;;
3349;SDS011;1688;51.000;13.684;2024-03-02T02:32:06;46.03;;;16.93;;
3349;SDS011;1688;51.000;13.684;2024-03-02T02:34:38;25.33;;;13.20;;
3349;SDS011;1688;51.000;13.684;2024-03-02T02:37:11;31.40;;;15.77;;
3349;SDS011;1688;51.000;13.684;2024-03-02T02:39:44;26.37;;;13.40;;
3349;SDS011;1688;51.000;13.684;2024-03-02T02:42:18;35.33;;;15.03;;
3349;SDS011;1688;51.000;13.684;2024-03-02T02:44:51;23.77;;;12.60;;
3349;SDS011;1688;51.000;13.684;2024-03-02T02:47:25;39.60;;;15.47;;
3349;SDS011;1688;51.000;13.684;2024-03-02T02:49:58;34.63;;;14.23;;
3349;SDS011;1688;51.000;13.684;2024-03-02T02:52:32;26.33;;;13.67;;
3349;SDS011;1688;51.000;13.684;2024-03-02T02:55:06;27.90;;;14.43;;
3349;SDS011;1688;51.000;13.684;2024-03-02T02:57:41;29.13;;;16.50;;
3349;SDS011;1688;51.000;13.684;2024-03-02T03:00:16;22.17;;;14.70;;
3349;SDS011;1688;51.000;13.684;2024-03-02T03:02:51;36.00;;;14.87;;
3349;SDS011;1688;51.000;13.684;2024-03-02T03:05:24;22.23;;;9.80;;
3349;SDS011;1688;51.000;13.684;2024-03-02T03:07:57;30.80;;;13.93;;
3349;SDS011;1688;51.000;13.684;2024-03-02T03:10:30;31.70;;;16.07;;
3349;SDS011;1688;51.000;13.684;2024-03-02T03:13:03;27.07;;;14.63;;
3349;SDS011;1688;51.000;13.684;2024-03-02T03:15:36;38.63;;;14.20;;
3349;SDS011;1688;51.000;13.684;2024-03-02T03:18:09;27.60;;;14.10;;
3349;SDS011;1688;51.000;13.684;2024-03-02T03:20:45;28.20;;;14.20;;
3349;SDS011;1688;51.000;13.684;2024-03-02T03:23:17;26.67;;;12.87;;
3349;SDS011;1688;51.000;13.684;2024-03-02T03:25:50;42.17;;;16.90;;
3349;SDS011;1688;51.000;13.684;2024-03-02T03:28:23;25.83;;;12.93;;
3349;SDS011;1688;51.000;13.684;2024-03-02T03:30:56;29.80;;;14.30;;
3349;SDS011;1688;51.000;13.684;2024-03-02T03:33:29;19.93;;;10.33;;
3349;SDS011;1688;51.000;13.684;2024-03-02T03:36:02;28.60;;;12.67;;
3349;SDS011;1688;51.000;13.684;2024-03-02T03:38:35;45.63;;;15.93;;
3349;SDS011;1688;51.000;13.684;2024-03-02T03:41:08;36.13;;;15.70;;
3349;SDS011;1688;51.000;13.684;2024-03-02T03:43:41;52.90;;;16.30;;
3349;SDS011;1688;51.000;13.684;2024-03-02T03:46:14;22.27;;;12.47;;
3349;SDS011;1688;51.000;13.684;2024-03-02T03:48:46;27.47;;;15.43;;
3349;SDS011;1688;51.000;13.684;2024-03-02T03:51:19;27.57;;;12.20;;
3349;SDS011;1688;51.000;13.684;2024-03-02T03:53:52;37.70;;;19.20;;
3349;SDS011;1688;51.000;13.684;2024-03-02T03:56:25;32.17;;;12.60;;
3349;SDS011;1688;51.000;13.684;2024-03-02T03:58:58;31.07;;;14.70;;
3349;SDS011;1688;51.000;13.684;2024-03-02T04:01:31;35.20;;;15.70;;
3349;SDS011;1688;51.000;13.684;2024-03-02T04:04:04;28.00;;;11.80;;
3349;SDS011;1688;51.000;13.684;2024-03-02T04:06:37;26.30;;;15.10;;
3349;SDS011;1688;51.000;13.684;2024-03-02T04:09:10;22.23;;;10.47;;
3349;SDS011;1688;51.000;13.684;2024-03-02T04:11:43;18.30;;;10.67;;
3349;SDS011;1688;51.000;13.684;2024-03-02T04:14:16;29.57;;;14.40;;
3349;SDS011;1688;51.000;13.684;2024-03-02T04:16:49;24.17;;;11.93;;
3349;SDS011;1688;51.000;13.684;2024-03-02T04:19:21;32.03;;;13.00;;
3349;SDS011;1688;51.000;13.684;2024-03-02T04:21:54;20.27;;;10.90;;
3349;SDS011;1688;51.000;13.684;2024-03-02T04:24:27;21.90;;;11.10;;
3349;SDS011;1688;51.000;13.684;2024-03-02T04:27:00;25.17;;;12.30;;
3349;SDS011;1688;51.000;13.684;2024-03-02T04:29:33;26.60;;;14.03;;
3349;SDS011;1688;51.000;13.684;2024-03-02T04:32:05;25.17;;;11.97;;
3349;SDS011;1688;51.000;13.684;2024-03-02T04:34:39;26.67;;;12.13;;
3349;SDS011;1688;51.000;13.684;2024-03-02T04:37:11;24.37;;;13.73;;
3349;SDS011;1688;51.000;13.684;2024-03-02T04:39:45;26.13;;;13.07;;
3349;SDS011;1688;51.000;13.684;2024-03-02T04:42:17;23.80;;;9.87;;
3349;SDS011;1688;51.000;13.684;2024-03-02T04:44:50;41.90;;;14.83;;
3349;SDS011;1688;51.000;13.684;2024-03-02T04:47:23;24.60;;;12.10;;
3349;SDS011;1688;51.000;13.684;2024-03-02T04:49:56;25.87;;;12.47;;
3349;SDS011;1688;51.000;13.684;2024-03-02T04:52:29;29.83;;;15.13;;
3349;SDS011;1688;51.000;13.684;2024-03-02T04:55:02;29.07;;;10.20;;
3349;SDS011;1688;51.000;13.684;2024-03-02T04:57:54;23.73;;;10.90;;
3349;SDS011;1688;51.000;13.684;2024-03-02T05:00:27;25.30;;;14.70;;
3349;SDS011;1688;51.000;13.684;2024-03-02T05:03:00;24.87;;;13.73;;
3349;SDS011;1688;51.000;13.684;2024-03-02T05:05:33;45.53;;;14.70;;
3349;SDS011;1688;51.000;13.684;2024-03-02T05:08:07;20.43;;;11.83;;
3349;SDS011;1688;51.000;13.684;2024-03-02T05:10:40;32.30;;;14.30;;
3349;SDS011;1688;51.000;13.684;2024-03-02T05:13:13;24.77;;;10.87;;
3349;SDS011;1688;51.000;13.684;2024-03-02T05:15:45;24.40;;;14.30;;
3349;SDS011;1688;51.000;13.684;2024-03-02T05:18:19;22.63;;;11.33;;
3349;SDS011;1688;51.000;13.684;2024-03-02T05:20:51;22.77;;;9.17;;
3349;SDS011;1688;51.000;13.684;2024-03-02T05:23:24;26.50;;;12.60;;
3349;SDS011;1688;51.000;13.684;2024-03-02T05:25:57;27.73;;;10.27;;
3349;SDS011;1688;51.000;13.684;2024-03-02T05:28:30;21.50;;;10.47;;
3349;SDS011;1688;51.000;13.684;2024-03-02T05:31:03;15.97;;;10.93;;
3349;SDS011;1688;51.000;13.684;2024-03-02T05:33:37;23.73;;;12.37;;
3349;SDS011;1688;51.000;13.684;2024-03-02T05:36:11;20.53;;;11.87;;
3349;SDS011;1688;51.000;13.684;2024-03-02T05:38:43;26.40;;;12.53;;
3349;SDS011;1688;51.000;13.684;2024-03-02T05:41:16;19.83;;;8.93;;
3349;SDS011;1688;51.000;13.684;2024-03-02T05:43:49;21.83;;;10.67;;
3349;SDS011;1688;51.000;13.684;2024-03-02T05:46:22;19.30;;;10.50;;
3349;SDS011;1688;51.000;13.684;2024-03-02T05:48:55;27.53;;;11.77;;
3349;SDS011;1688;51.000;13.684;2024-03-02T05:51:28;17.43;;;11.50;;
3349;SDS011;1688;51.000;13.684;2024-03-02T05:54:01;27.03;;;11.17;;
3349;SDS011;1688;51.000;13.684;2024-03-02T05:56:35;15.53;;;8.13;;
3349;SDS011;1688;51.000;13.684;2024-03-02T05:59:08;19.30;;;12.63;;
3349;SDS011;1688;51.000;13.684;2024-03-02T06:01:46;20.00;;;9.73;;
3349;SDS011;1688;51.000;13.684;2024-03-02T06:04:20;25.03;;;10.87;;
3349;SDS011;1688;51.000;13.684;2024-03-02T06:06:53;16.27;;;9.90;;
3349;SDS011;1688;51.000;13.684;2024-03-02T06:09:26;20.57;;;10.97;;
3349;SDS011;1688;51.000;13.684;2024-03-02T06:11:59;19.00;;;8.50;;
3349;SDS011;1688;51.000;13.684;2024-03-02T06:14:32;19.67;;;8.20;;
3349;SDS011;1688;51.000;13.684;2024-03-02T06:17:05;12.80;;;8.20;;
3349;SDS011;1688;51.000;13.684;2024-03-02T06:19:38;21.97;;;12.00;;
3349;SDS011;1688;51.000;13.684;2024-03-02T06:22:11;27.20;;;11.60;;
3349;SDS011;1688;51.000;13.684;2024-03-02T06:24:44;15.77;;;10.40;;
3349;SDS011;1688;51.000;13.684;2024-03-02T06:27:17;16.23;;;10.30;;
3349;SDS011;1688;51.000;13.684;2024-03-02T06:29:50;19.77;;;9.73;;
3349;SDS011;1688;51.000;13.684;2024-03-02T06:32:23;14.37;;;8.20;;
3349;SDS011;1688;51.000;13.684;2024-03-02T06:34:57;13.37;;;7.80;;
3349;SDS011;1688;51.000;13.684;2024-03-02T06:37:30;15.67;;;8.90;;
3349;SDS011;1688;51.000;13.684;2024-03-02T06:40:03;13.57;;;10.40;;
3349;SDS011;1688;51.000;13.684;2024-03-02T06:42:36;19.97;;;10.03;;
3349;SDS011;1688;51.000;13.684;2024-03-02T06:45:09;23.50;;;8.90;;
3349;SDS011;1688;51.000;13.684;2024-03-02T06:47:42;15.97;;;8.70;;
3349;SDS011;1688;51.000;13.684;2024-03-02T06:50:15;14.57;;;10.73;;
3349;SDS011;1688;51.000;13.684;2024-03-02T06:52:48;29.00;;;13.03;;
3349;SDS011;1688;51.000;13.684;2024-03-02T06:55:20;48.40;;;15.00;;
3349;SDS011;1688;51.000;13.684;2024-03-02T06:57:54;43.00;;;15.43;;
3349;SDS011;1688;51.000;13.684;2024-03-02T07:00:26;42.07;;;16.80;;
3349;SDS011;1688;51.000;13.684;2024-03-02T07:02:59;28.53;;;12.03;;
3349;SDS011;1688;51.000;13.684;2024-03-02T07:05:32;46.27;;;16.60;;
3349;SDS011;1688;51.000;13.684;2024-03-02T07:08:05;28.87;;;13.60;;
3349;SDS011;1688;51.000;13.684;2024-03-02T07:10:38;29.50;;;11.40;;
3349;SDS011;1688;51.000;13.684;2024-03-02T07:13:11;16.53;;;12.03;;
3349;SDS011;1688;51.000;13.684;2024-03-02T07:15:45;21.27;;;11.00;;
3349;SDS011;1688;51.000;13.684;2024-03-02T07:18:48;29.97;;;11.93;;
3349;SDS011;1688;51.000;13.684;2024-03-02T07:21:24;17.43;;;10.00;;
3349;SDS011;1688;51.000;13.684;2024-03-02T07:23:57;33.63;;;13.73;;
3349;SDS011;1688;51.000;13.684;2024-03-02T07:26:30;48.03;;;10.60;;
3349;SDS011;1688;51.000;13.684;2024-03-02T07:29:06;25.10;;;10.87;;
3349;SDS011;1688;51.000;13.684;2024-03-02T07:31:39;15.73;;;8.10;;
3349;SDS011;1688;51.000;13.684;2024-03-02T07:34:12;18.63;;;10.00;;
3349;SDS011;1688;51.000;13.684;2024-03-02T07:36:45;35.07;;;12.30;;
3349;SDS011;1688;51.000;13.684;2024-03-02T07:39:18;16.27;;;9.33;;
3349;SDS011;1688;51.000;13.684;2024-03-02T07:41:51;17.87;;;10.97;;
3349;SDS011;1688;51.000;13.684;2024-03-02T07:44:24;16.33;;;8.83;;
3349;SDS011;1688;51.000;13.684;2024-03-02T07:46:57;16.10;;;8.23;;
3349;SDS011;1688;51.000;13.684;2024-03-02T07:49:30;14.30;;;7.50;;
3349;SDS011;1688;51.000;13.684;2024-03-02T07:52:03;8.27;;;6.27;;
3349;SDS011;1688;51.000;13.684;2024-03-02T07:54:36;12.07;;;6.50;;
3349;SDS011;1688;51.000;13.684;2024-03-02T07:57:09;17.07;;;8.10;;
3349;SDS011;1688;51.000;13.684;2024-03-02T07:59:42;13.70;;;7.37;;
3349;SDS011;1688;51.000;13.684;2024-03-02T08:02:15;13.17;;;6.57;;
3349;SDS011;1688;51.000;13.684;2024-03-02T08:04:49;13.43;;;6.30;;
3349;SDS011;1688;51.000;13.684;2024-03-02T08:07:22;19.43;;;7.90;;
3349;SDS011;1688;51.000;13.684;2024-03-02T08:09:55;16.73;;;7.67;;
3349;SDS011;1688;51.000;13.684;2024-03-02T08:12:28;16.40;;;9.57;;
3349;SDS011;1688;51.000;13.684;2024-03-02T08:15:01;12.90;;;8.03;;
3349;SDS011;1688;51.000;13.684;2024-03-02T08:17:34;16.13;;;8.93;;
3349;SDS011;1688;51.000;13.684;2024-03-02T08:20:09;16.60;;;10.70;;
3349;SDS011;1688;51.000;13.684;2024-03-02T08:22:43;19.10;;;9.07;;
3349;SDS011;1688;51.000;13.684;2024-03-02T08:25:17;10.53;;;6.93;;
3349;SDS011;1688;51.000;13.684;2024-03-02T08:27:50;13.90;;;6.87;;
3349;SDS011;1688;51.000;13.684;2024-03-02T08:30:23;12.67;;;8.60;;
3349;SDS011;1688;51.000;13.684;2024-03-02T08:32:56;13.70;;;6.70;;
3349;SDS011;1688;51.000;13.684;2024-03-02T08:35:28;8.77;;;7.90;;
3349;SDS011;1688;51.000;13.684;2024-03-02T08:38:02;13.13;;;7.93;;
3349;SDS011;1688;51.000;13.684;2024-03-02T08:40:35;15.87;;;9.53;;
3349;SDS011;1688;51.000;13.684;2024-03-02T08:43:08;20.27;;;8.37;;
3349;SDS011;1688;51.000;13.684;2024-03-02T08:45:41;15.53;;;9.60;;
3349;SDS011;1688;51.000;13.684;2024-03-02T08:48:14;10.20;;;6.27;;
3349;SDS011;1688;51.000;13.684;2024-03-02T08:50:47;13.23;;;7.40;;
3349;SDS011;1688;51.000;13.684;2024-03-02T08:53:20;10.87;;;7.93;;
3349;SDS011;1688;51.000;13.684;2024-03-02T08:55:53;9.70;;;7.50;;
3349;SDS011;1688;51.000;13.684;2024-03-02T08:58:29;14.43;;;8.30;;
3349;SDS011;1688;51.000;13.684;2024-03-02T09:01:02;18.50;;;7.87;;
3349;SDS011;1688;51.000;13.684;2024-03-02T09:03:35;20.90;;;9.47;;
3349;SDS011;1688;51.000;13.684;2024-03-02T09:06:09;15.17;;;7.27;;
3349;SDS011;1688;51.000;13.684;2024-03-02T09:08:43;11.43;;;6.87;;
3349;SDS011;1688;51.000;13.684;2024-03-02T09:11:16;15.93;;;7.67;;
3349;SDS011;1688;51.000;13.684;2024-03-02T09:13:49;11.60;;;5.80;;
3349;SDS011;1688;51.000;13.684;2024-03-02T09:16:21;9.80;;;5.93;;
3349;SDS011;1688;51.000;13.684;2024-03-02T09:18:54;10.20;;;6.40;;
3349;SDS011;1688;51.000;13.684;2024-03-02T09:21:27;11.73;;;4.73;;
3349;SDS011;1688;51.000;13.684;2024-03-02T09:24:02;11.27;;;6.40;;
3349;SDS011;1688;51.000;13.684;2024-03-02T09:26:35;10.43;;;5.07;;
3349;SDS011;1688;51.000;13.684;2024-03-02T09:29:08;9.80;;;5.80;;
3349;SDS011;1688;51.000;13.684;2024-03-02T09:31:41;13.33;;;5.30;;
3349;SDS011;1688;51.000;13.684;2024-03-02T09:34:15;12.10;;;6.67;;
3349;SDS011;1688;51.000;13.684;2024-03-02T09:36:48;13.20;;;4.90;;
3349;SDS011;1688;51.000;13.684;2024-03-02T09:39:24;15.87;;;5.13;;
3349;SDS011;1688;51.000;13.684;2024-03-02T09:41:59;16.03;;;5.67;;
3349;SDS011;1688;51.000;13.684;2024-03-02T09:44:32;8.83;;;5.80;;
3349;SDS011;1688;51.000;13.684;2024-03-02T09:47:06;10.30;;;5.73;;
3349;SDS011;1688;51.000;13.684;2024-03-02T09:49:39;14.53;;;9.63;;
3349;SDS011;1688;51.000;13.684;2024-03-02T09:52:12;15.90;;;9.97;;
3349;SDS011;1688;51.000;13.684;2024-03-02T09:54:47;17.07;;;9.37;;
3349;SDS011;1688;51.000;13.684;2024-03-02T09:57:20;13.10;;;6.37;;
3349;SDS011;1688;51.000;13.684;2024-03-02T09:59:53;19.93;;;9.90;;
3349;SDS011;1688;51.000;13.684;2024-03-02T10:02:26;27.50;;;12.87;;
3349;SDS011;1688;51.000;13.684;2024-03-02T10:04:59;21.20;;;10.50;;
3349;SDS011;1688;51.000;13.684;2024-03-02T10:07:32;24.40;;;11.93;;
3349;SDS011;1688;51.000;13.684;2024-03-02T10:10:14;14.43;;;7.57;;
3349;SDS011;1688;51.000;13.684;2024-03-02T10:12:48;15.60;;;5.70;;
3349;SDS011;1688;51.000;13.684;2024-03-02T10:15:35;7.63;;;5.17;;
3349;SDS011;1688;51.000;13.684;2024-03-02T10:18:10;9.50;;;4.53;;
3349;SDS011;1688;51.000;13.684;2024-03-02T10:20:44;11.80;;;5.20;;
3349;SDS011;1688;51.000;13.684;2024-03-02T10:23:17;11.50;;;6.90;;
3349;SDS011;1688;51.000;13.684;2024-03-02T10:25:50;8.80;;;5.37;;
3349;SDS011;1688;51.000;13.684;2024-03-02T10:28:29;10.40;;;6.87;;
3349;SDS011;1688;51.000;13.684;2024-03-02T10:31:03;13.70;;;7.67;;
3349;SDS011;1688;51.000;13.684;2024-03-02T10:33:38;8.77;;;5.67;;
3349;SDS011;1688;51.000;13.684;2024-03-02T10:36:12;14.63;;;5.57;;
3349;SDS011;1688;51.000;13.684;2024-03-02T10:38:45;5.83;;;4.20;;
3349;SDS011;1688;51.000;13.684;2024-03-02T10:41:19;7.70;;;4.30;;
3349;SDS011;1688;51.000;13.684;2024-03-02T10:43:55;10.20;;;4.70;;
3349;SDS011;1688;51.000;13.684;2024-03-02T10:46:33;6.40;;;5.80;;
3349;SDS011;1688;51.000;13.684;2024-03-02T10:49:06;5.43;;;3.43;;
3349;SDS011;1688;51.000;13.684;2024-03-02T10:51:40;5.43;;;4.10;;
3349;SDS011;1688;51.000;13.684;2024-03-02T10:54:14;4.70;;;3.70;;
3349;SDS011;1688;51.000;13.684;2024-03-02T10:56:47;7.03;;;4.53;;
3349;SDS011;1688;51.000;13.684;2024-03-02T10:59:33;10.13;;;5.47;;
3349;SDS011;1688;51.000;13.684;2024-03-02T11:02:07;15.00;;;5.77;;
3349;SDS011;1688;51.000;13.684;2024-03-02T11:04:44;6.63;;;3.50;;
3349;SDS011;1688;51.000;13.684;2024-03-02T11:07:19;8.77;;;4.10;;
3349;SDS011;1688;51.000;13.684;2024-03-02T11:09:57;5.70;;;4.90;;
3349;SDS011;1688;51.000;13.684;2024-03-02T11:12:38;8.70;;;4.77;;
3349;SDS011;1688;51.000;13.684;2024-03-02T11:15:20;8.53;;;4.43;;
3349;SDS011;1688;51.000;13.684;2024-03-02T11:17:56;21.30;;;4.43;;
3349;SDS011;1688;51.000;13.684;2024-03-02T11:20:30;5.50;;;4.30;;
3349;SDS011;1688;51.000;13.684;2024-03-02T11:23:08;9.00;;;5.13;;
3349;SDS011;1688;51.000;13.684;2024-03-02T11:25:41;6.80;;;4.53;;
3349;SDS011;1688;51.000;13.684;2024-03-02T11:28:14;7.10;;;4.93;;
3349;SDS011;1688;51.000;13.684;2024-03-02T11:33:23;5.90;;;5.17;;
3349;SDS011;1688;51.000;13.684;2024-03-02T11:35:57;7.80;;;4.50;;
3349;SDS011;1688;51.000;13.684;2024-03-02T11:38:31;9.13;;;4.97;;
3349;SDS011;1688;51.000;13.684;2024-03-02T11:41:08;10.17;;;5.63;;
3349;SDS011;1688;51.000;13.684;2024-03-02T11:43:41;8.40;;;6.23;;
3349;SDS011;1688;51.000;13.684;2024-03-02T11:46:16;8.37;;;5.03;;
3349;SDS011;1688;51.000;13.684;2024-03-02T11:48:49;14.10;;;6.33;;
3349;SDS011;1688;51.000;13.684;2024-03-02T11:51:22;11.63;;;6.77;;
3349;SDS011;1688;51.000;13.684;2024-03-02T11:53:55;7.53;;;5.03;;
3349;SDS011;1688;51.000;13.684;2024-03-02T11:56:28;13.70;;;5.97;;
3349;SDS011;1688;51.000;13.684;2024-03-02T11:59:04;11.00;;;6.40;;
3349;SDS011;1688;51.000;13.684;2024-03-02T12:01:37;9.03;;;4.80;;
3349;SDS011;1688;51.000;13.684;2024-03-02T12:04:10;18.10;;;5.30;;
3349;SDS011;1688;51.000;13.684;2024-03-02T12:06:43;13.13;;;6.00;;
3349;SDS011;1688;51.000;13.684;2024-03-02T12:09:16;8.17;;;4.97;;
3349;SDS011;1688;51.000;13.684;2024-03-02T12:12:00;10.37;;;5.60;;
3349;SDS011;1688;51.000;13.684;2024-03-02T12:14:35;12.17;;;4.80;;
3349;SDS011;1688;51.000;13.684;2024-03-02T12:17:09;10.40;;;5.93;;
3349;SDS011;1688;51.000;13.684;2024-03-02T12:19:43;21.13;;;6.47;;
3349;SDS011;1688;51.000;13.684;2024-03-02T12:22:18;9.70;;;6.23;;
3349;SDS011;1688;51.000;13.684;2024-03-02T12:24:51;12.07;;;6.70;;
3349;SDS011;1688;51.000;13.684;2024-03-02T12:27:24;11.80;;;5.97;;
3349;SDS011;1688;51.000;13.684;2024-03-02T12:29:57;7.83;;;5.70;;
3349;SDS011;1688;51.000;13.684;2024-03-02T12:32:30;18.27;;;5.67;;
3349;SDS011;1688;51.000;13.684;2024-03-02T12:35:04;7.20;;;5.67;;
3349;SDS011;1688;51.000;13.684;2024-03-02T12:37:42;9.13;;;4.47;;
3349;SDS011;1688;51.000;13.684;2024-03-02T12:40:18;8.13;;;5.60;;
3349;SDS011;1688;51.000;13.684;2024-03-02T12:42:54;8.50;;;5.77;;
3349;SDS011;1688;51.000;13.684;2024-03-02T12:45:27;17.43;;;5.40;;
3349;SDS011;1688;51.000;13.684;2024-03-02T12:48:00;10.83;;;4.00;;
3349;SDS011;1688;51.000;13.684;2024-03-02T12:50:34;10.47;;;5.20;;
3349;SDS011;1688;51.000;13.684;2024-03-02T12:53:07;10.23;;;4.60;;
3349;SDS011;1688;51.000;13.684;2024-03-02T12:55:47;13.37;;;6.97;;
3349;SDS011;1688;51.000;13.684;2024-03-02T12:58:21;8.60;;;4.17;;
3349;SDS011;1688;51.000;13.684;2024-03-02T13:01:07;15.53;;;6.87;;
3349;SDS011;1688;51.000;13.684;2024-03-02T13:03:41;6.00;;;4.40;;
3349;SDS011;1688;51.000;13.684;2024-03-02T13:06:14;9.50;;;5.70;;
3349;SDS011;1688;51.000;13.684;2024-03-02T13:08:53;8.97;;;5.83;;
3349;SDS011;1688;51.000;13.684;2024-03-02T13:11:30;10.73;;;6.83;;
3349;SDS011;1688;51.000;13.684;2024-03-02T13:14:04;7.87;;;5.80;;
3349;SDS011;1688;51.000;13.684;2024-03-02T13:16:41;13.60;;;8.53;;
3349;SDS011;1688;51.000;13.684;2024-03-02T13:19:19;13.70;;;5.03;;
3349;SDS011;1688;51.000;13.684;2024-03-02T13:21:53;11.73;;;6.80;;
3349;SDS011;1688;51.000;13.684;2024-03-02T13:24:29;21.67;;;7.50;;
3349;SDS011;1688;51.000;13.684;2024-03-02T13:27:03;18.37;;;7.37;;
3349;SDS011;1688;51.000;13.684;2024-03-02T13:29:36;11.03;;;5.47;;
3349;SDS011;1688;51.000;13.684;2024-03-02T13:32:09;7.53;;;5.63;;
3349;SDS011;1688;51.000;13.684;2024-03-02T13:34:42;16.00;;;4.97;;
3349;SDS011;1688;51.000;13.684;2024-03-02T13:37:15;11.80;;;7.37;;
3349;SDS011;1688;51.000;13.684;2024-03-02T13:39:48;14.93;;;5.87;;
3349;SDS011;1688;51.000;13.684;2024-03-02T13:42:21;9.13;;;5.40;;
3349;SDS011;1688;51.000;13.684;2024-03-02T13:44:55;18.03;;;7.63;;
3349;SDS011;1688;51.000;13.684;2024-03-02T13:47:28;7.10;;;5.63;;
3349;SDS011;1688;51.000;13.684;2024-03-02T13:50:01;10.50;;;5.90;;
3349;SDS011;1688;51.000;13.684;2024-03-02T13:52:35;16.10;;;7.20;;
3349;SDS011;1688;51.000;13.684;2024-03-02T13:55:08;14.83;;;8.53;;
3349;SDS011;1688;51.000;13.684;2024-03-02T13:57:41;20.30;;;7.10;;
3349;SDS011;1688;51.000;13.684;2024-03-02T14:00:14;10.50;;;7.47;;
3349;SDS011;1688;51.000;13.684;2024-03-02T14:02:48;11.10;;;8.00;;
3349;SDS011;1688;51.000;13.684;2024-03-02T14:05:24;13.70;;;7.50;;
3349;SDS011;1688;51.000;13.684;2024-03-02T14:07:56;14.00;;;6.73;;
3349;SDS011;1688;51.000;13.684;2024-03-02T14:10:31;14.10;;;7.17;;
3349;SDS011;1688;51.000;13.684;2024-03-02T14:13:03;14.03;;;6.17;;
3349;SDS011;1688;51.000;13.684;2024-03-02T14:15:37;14.43;;;7.47;;
3349;SDS011;1688;51.000;13.684;2024-03-02T14:18:12;13.67;;;7.03;;
3349;SDS011;1688;51.000;13.684;2024-03-02T14:20:45;15.43;;;8.57;;
3349;SDS011;1688;51.000;13.684;2024-03-02T14:23:24;19.20;;;10.13;;
3349;SDS011;1688;51.000;13.684;2024-03-02T14:25:58;14.27;;;7.03;;
3349;SDS011;1688;51.000;13.684;2024-03-02T14:28:31;17.23;;;9.33;;
3349;SDS011;1688;51.000;13.684;2024-03-02T14:31:21;26.63;;;10.80;;
3349;SDS011;1688;51.000;13.684;2024-03-02T14:33:54;15.60;;;7.27;;
3349;SDS011;1688;51.000;13.684;2024-03-02T14:36:27;22.77;;;9.50;;
3349;SDS011;1688;51.000;13.684;2024-03-02T14:39:01;14.70;;;7.57;;
3349;SDS011;1688;51.000;13.684;2024-03-02T14:41:34;16.30;;;9.83;;
3349;SDS011;1688;51.000;13.684;2024-03-02T14:44:06;12.43;;;7.43;;
3349;SDS011;1688;51.000;13.684;2024-03-02T14:46:39;15.73;;;6.80;;
3349;SDS011;1688;51.000;13.684;2024-03-02T14:49:15;15.00;;;8.27;;
3349;SDS011;1688;51.000;13.684;2024-03-02T14:51:48;14.83;;;8.27;;
3349;SDS011;1688;51.000;13.684;2024-03-02T14:54:21;21.60;;;11.40;;
3349;SDS011;1688;51.000;13.684;2024-03-02T14:56:54;21.67;;;11.87;;
3349;SDS011;1688;51.000;13.684;2024-03-02T14:59:29;17.00;;;8.30;;
3349;SDS011;1688;51.000;13.684;2024-03-02T15:02:02;16.53;;;7.33;;
3349;SDS011;1688;51.000;13.684;2024-03-02T15:04:35;16.33;;;8.20;;
3349;SDS011;1688;51.000;13.684;2024-03-02T15:07:08;9.70;;;6.50;;
3349;SDS011;1688;51.000;13.684;2024-03-02T15:09:41;21.53;;;10.90;;
3349;SDS011;1688;51.000;13.684;2024-03-02T15:12:14;10.20;;;8.13;;
3349;SDS011;1688;51.000;13.684;2024-03-02T15:14:46;12.73;;;7.90;;
3349;SDS011;1688;51.000;13.684;2024-03-02T15:17:20;14.77;;;8.67;;
3349;SDS011;1688;51.000;13.684;2024-03-02T15:19:54;16.93;;;7.30;;
3349;SDS011;1688;51.000;13.684;2024-03-02T15:22:26;15.17;;;8.97;;
3349;SDS011;1688;51.000;13.684;2024-03-02T15:24:59;19.33;;;7.97;;